Time;durP1;ratioP1;P1;durP2;ratioP2;P2;SDS_P1;SDS_P2;PMS_P1;PMS_P2;Temp;Humidity;BMP_temperature;BMP_pressure;BME280_temperature;BME280_humidity;BME280_pressure;Samples;Min_cycle;Max_cycle;Signal;HPM_P1;HPM_P2
2023/09/12 06:46:07;;;;;;;;;15.00;15.00;;;;;25.35;55.28;101011.16;5078400;27;45668;-71
2023/09/12 06:48:32;;;;;;;;;14.67;14.33;;;;;25.49;55.04;101012.28;5067824;28;45512;-71
2023/09/12 06:50:57;;;;;;;;;17.33;16.67;;;;;25.64;54.77;101016.03;5068940;28;45509;-71
2023/09/12 06:53:23;;;;;;;;;14.00;13.00;;;;;25.83;54.00;101019.31;5067490;28;45512;-71
2023/09/12 06:55:48;;;;;;;;;15.67;14.33;;;;;25.99;54.09;101015.66;5066256;27;45465;-73
2023/09/12 06:58:13;;;;;;;;;15.33;15.00;;;;;26.17;53.25;101015.38;5066347;28;45369;-71
2023/09/12 07:00:38;;;;;;;;;17.67;16.00;;;;;26.37;53.10;101028.56;5069997;28;45616;-72
2023/09/12 07:03:04;;;;;;;;;16.33;15.00;;;;;26.48;52.24;101010.94;5069151;28;45574;-71
2023/09/12 07:05:29;;;;;;;;;14.67;14.33;;;;;26.70;51.99;101019.28;5068603;27;46426;-72
2023/09/12 07:07:55;;;;;;;;;14.00;13.67;;;;;26.86;51.63;101017.44;5066951;27;45630;-72
2023/09/12 07:10:20;;;;;;;;;15.00;14.33;;;;;27.01;51.24;101022.97;5068664;28;45469;-72
2023/09/12 07:12:46;;;;;;;;;21.00;17.67;;;;;27.15;51.64;101030.31;5066458;28;45454;-71
2023/09/12 07:15:14;;;;;;;;;13.67;13.67;;;;;27.27;51.33;101029.84;5062771;28;46281;-72
2023/09/12 07:17:39;;;;;;;;;14.00;13.00;;;;;27.41;50.32;101039.88;5056223;28;45701;-71
2023/09/12 07:20:11;;;;;;;;;18.33;18.33;;;;;27.50;50.25;101043.34;5064956;28;45518;-72
2023/09/12 07:22:36;;;;;;;;;14.67;14.67;;;;;27.58;49.95;101046.00;5065099;28;45538;-71
2023/09/12 07:25:02;;;;;;;;;14.00;14.00;;;;;27.70;49.78;101043.66;5068385;28;46019;-70
2023/09/12 07:27:28;;;;;;;;;17.67;15.67;;;;;27.80;49.99;101045.25;5069353;28;45582;-70
2023/09/12 07:29:53;;;;;;;;;18.00;17.00;;;;;27.90;49.30;101044.97;5061732;28;45775;-69
2023/09/12 07:32:19;;;;;;;;;17.00;15.00;;;;;27.97;49.19;101037.69;5059153;28;53803;-70
2023/09/12 07:34:48;;;;;;;;;15.00;15.00;;;;;28.03;48.79;101045.09;5067553;28;45848;-69
2023/09/12 07:37:14;;;;;;;;;12.67;12.67;;;;;28.10;48.60;101039.72;5063352;28;45849;-70
2023/09/12 07:39:45;;;;;;;;;16.67;16.67;;;;;28.17;48.60;101037.06;5066633;28;45458;-71
2023/09/12 07:42:10;;;;;;;;;17.00;16.00;;;;;28.18;48.26;101028.72;5059459;28;45451;-71
2023/09/12 07:44:36;;;;;;;;;18.33;18.33;;;;;28.22;48.04;101023.69;5070740;27;45722;-72
2023/09/12 07:47:01;;;;;;;;;18.33;18.33;;;;;28.29;48.27;101035.56;5077804;27;48979;-72
2023/09/12 07:49:27;;;;;;;;;18.33;17.33;;;;;28.32;47.71;101046.09;5079316;27;45525;-73
2023/09/12 07:51:52;;;;;;;;;19.33;19.33;;;;;28.35;48.07;101042.97;5089337;27;45450;-71
2023/09/12 07:54:17;;;;;;;;;16.00;15.33;;;;;28.36;48.13;101041.09;5085716;27;46871;-70
2023/09/12 07:56:43;;;;;;;;;16.33;16.33;;;;;28.37;47.92;101040.88;5078216;27;45430;-70
2023/09/12 07:59:10;;;;;;;;;19.00;18.00;;;;;28.41;47.70;101035.91;5069056;28;45464;-71
2023/09/12 08:01:35;;;;;;;;;17.33;15.33;;;;;28.45;47.69;101028.16;5070844;28;45643;-72
2023/09/12 08:04:00;;;;;;;;;26.67;21.67;;;;;28.50;47.31;101042.06;5072935;28;45739;-72
2023/09/12 08:06:26;;;;;;;;;16.33;14.33;;;;;28.56;47.38;101049.47;5060610;27;45822;-71
2023/09/12 08:08:52;;;;;;;;;16.33;16.33;;;;;28.64;47.12;101049.34;5069489;28;45457;-70
2023/09/12 08:11:17;;;;;;;;;17.33;14.67;;;;;28.75;47.60;101052.59;5069960;28;45393;-70
2023/09/12 08:13:42;;;;;;;;;15.00;14.67;;;;;28.84;47.62;101059.59;5071737;28;45628;-71
2023/09/12 08:16:07;;;;;;;;;16.33;14.33;;;;;28.91;48.02;101062.41;5078256;27;45429;-71
2023/09/12 08:18:33;;;;;;;;;13.67;12.33;;;;;29.01;47.73;101062.91;5073258;28;50958;-72
2023/09/12 08:20:58;;;;;;;;;13.33;13.33;;;;;29.04;47.96;101062.53;5059558;27;46347;-73
2023/09/12 08:23:23;;;;;;;;;14.33;11.67;;;;;29.16;47.53;101071.03;5073552;27;45624;-73
2023/09/12 08:25:49;;;;;;;;;12.00;12.00;;;;;29.25;47.21;101070.84;5068946;27;47018;-71
2023/09/12 08:28:14;;;;;;;;;15.00;13.33;;;;;29.32;47.19;101067.16;5065795;28;45539;-71
2023/09/12 08:30:39;;;;;;;;;15.00;13.00;;;;;29.41;46.78;101075.16;5069331;28;53838;-70
2023/09/12 08:33:06;;;;;;;;;15.67;15.67;;;;;29.46;47.25;101079.00;5067298;28;45663;-70
2023/09/12 08:35:32;;;;;;;;;13.33;13.33;;;;;29.54;47.11;101075.28;5070894;27;45691;-69
2023/09/12 08:37:57;;;;;;;;;16.33;14.33;;;;;29.60;46.96;101081.84;5065036;28;45577;-68
2023/09/12 08:40:23;;;;;;;;;15.00;15.00;;;;;29.67;46.87;101087.38;5069275;28;45689;-68
2023/09/12 08:42:51;;;;;;;;;13.00;13.00;;;;;29.72;46.48;101074.75;5055724;28;45657;-67
2023/09/12 08:45:19;;;;;;;;;12.67;10.33;;;;;29.77;46.61;101076.88;5068022;27;45469;-68
2023/09/12 08:47:50;;;;;;;;;12.67;12.67;;;;;29.82;46.48;101084.47;5071236;28;45945;-70
2023/09/12 08:50:19;;;;;;;;;14.00;14.00;;;;;29.86;46.54;101088.50;5066560;28;45297;-71
2023/09/12 08:52:46;;;;;;;;;15.00;15.00;;;;;29.89;46.35;101095.44;5065833;28;46168;-70
2023/09/12 08:55:12;;;;;;;;;18.33;16.33;;;;;29.92;45.31;101090.41;5066587;28;45601;-70
2023/09/12 08:57:41;;;;;;;;;21.33;19.33;;;;;29.88;44.56;101088.28;5073801;28;45430;-70
2023/09/12 09:00:12;;;;;;;;;17.67;16.33;;;;;29.87;45.41;101086.63;5073895;27;45401;-71
2023/09/12 09:02:38;;;;;;;;;17.00;15.33;;;;;29.87;45.52;101083.88;5067514;28;45529;-71
2023/09/12 09:05:05;;;;;;;;;14.00;13.00;;;;;29.92;45.56;101095.06;5063914;27;45720;-72
2023/09/12 09:07:37;;;;;;;;;15.00;15.00;;;;;29.94;46.26;101090.22;5068573;28;45437;-73
2023/09/12 09:10:05;;;;;;;;;15.00;14.67;;;;;29.99;45.90;101093.19;5057838;28;45644;-72
2023/09/12 09:12:31;;;;;;;;;17.00;15.00;;;;;30.03;46.03;101090.91;5067915;28;46181;-73
2023/09/12 09:14:57;;;;;;;;;14.67;13.67;;;;;30.08;45.95;101099.34;5067504;28;45528;-71
2023/09/12 09:17:23;;;;;;;;;10.00;10.00;;;;;30.08;45.95;101082.91;5070677;28;45624;-74
2023/09/12 09:19:48;;;;;;;;;13.33;12.33;;;;;30.12;45.83;101092.44;5063247;28;47670;-74
2023/09/12 09:22:13;;;;;;;;;14.33;13.67;;;;;30.15;45.93;101100.22;5070657;28;60978;-72
2023/09/12 09:24:39;;;;;;;;;15.67;15.67;;;;;30.16;45.65;101099.16;5071097;28;45714;-72
2023/09/12 09:27:04;;;;;;;;;20.00;17.00;;;;;30.12;45.41;101097.91;5068345;28;45730;-72
2023/09/12 09:29:31;;;;;;;;;18.33;18.33;;;;;30.05;45.60;101097.84;5072143;28;45470;-72
2023/09/12 09:32:01;;;;;;;;;23.00;22.00;;;;;29.97;45.14;101096.13;5070926;28;46712;-71
2023/09/12 09:34:31;;;;;;;;;20.00;20.00;;;;;29.92;45.20;101095.06;5073020;28;45469;-72
2023/09/12 09:36:57;;;;;;;;;15.00;13.00;;;;;29.84;45.69;101096.91;5064164;28;45518;-72
2023/09/12 09:39:28;;;;;;;;;24.00;20.33;;;;;29.80;45.59;101103.81;5060613;28;45385;-72
2023/09/12 09:41:56;;;;;;;;;21.67;18.00;;;;;29.75;45.83;101105.50;5069799;28;46023;-71
2023/09/12 09:44:23;;;;;;;;;22.00;19.00;;;;;29.66;45.55;101105.66;5066232;28;45695;-71
2023/09/12 09:46:55;;;;;;;;;20.67;20.67;;;;;29.63;45.85;101113.44;5063135;28;45511;-71
2023/09/12 09:49:21;;;;;;;;;22.67;20.00;;;;;29.53;45.82;101113.78;5047279;28;45483;-71
2023/09/12 09:51:47;;;;;;;;;18.00;18.00;;;;;29.48;46.14;101122.56;5060094;28;45471;-72
2023/09/12 09:54:13;;;;;;;;;20.00;18.33;;;;;29.39;46.40;101123.75;5063458;28;45432;-71
2023/09/12 09:56:49;;;;;;;;;21.00;20.33;;;;;29.31;46.22;101132.94;5063974;28;45538;-72
2023/09/12 09:59:20;;;;;;;;;24.00;21.33;;;;;29.25;46.61;101134.59;5070566;28;45405;-70
2023/09/12 10:01:47;;;;;;;;;18.00;16.67;;;;;29.14;46.98;101133.22;5067500;28;46415;-71
2023/09/12 10:04:15;;;;;;;;;21.33;21.33;;;;;29.08;46.99;101142.22;5063367;28;45626;-72
2023/09/12 10:06:44;;;;;;;;;17.67;17.00;;;;;29.03;47.28;101153.75;5068464;28;45817;-72
2023/09/12 10:09:13;;;;;;;;;18.00;18.00;;;;;28.98;47.47;101147.19;5061651;28;45769;-71
2023/09/12 10:11:43;;;;;;;;;20.33;20.33;;;;;28.94;47.29;101149.47;5063522;28;46339;-72
2023/09/12 10:14:09;;;;;;;;;19.00;17.33;;;;;28.91;47.65;101149.84;5064200;28;45515;-70
2023/09/12 10:16:38;;;;;;;;;22.00;19.00;;;;;28.80;47.06;101143.84;5064770;28;45452;-71
2023/09/12 10:19:19;;;;;;;;;17.67;17.67;;;;;28.83;47.07;101136.28;5061826;28;45512;-71
2023/09/12 10:21:49;;;;;;;;;16.00;14.67;;;;;28.83;47.34;101139.00;5063445;28;46021;-70
2023/09/12 10:24:15;;;;;;;;;21.00;20.33;;;;;28.78;47.90;101134.97;5068623;28;45594;-71
2023/09/12 10:26:44;;;;;;;;;21.67;19.67;;;;;28.77;47.62;101125.09;5071486;28;45700;-70
2023/09/12 10:29:12;;;;;;;;;22.33;19.33;;;;;28.69;47.42;101108.81;5057132;28;45834;-72
2023/09/12 10:31:38;;;;;;;;;17.33;17.33;;;;;28.70;47.78;101110.53;5064152;28;45685;-72
2023/09/12 10:34:06;;;;;;;;;20.33;18.67;;;;;28.67;47.49;101105.47;5065340;28;45817;-72
2023/09/12 10:36:32;;;;;;;;;17.00;17.00;;;;;28.65;47.93;101104.81;5070720;28;45481;-71
2023/09/12 10:38:59;;;;;;;;;22.00;19.00;;;;;28.59;47.75;101103.69;5041987;28;45672;-71
2023/09/12 10:41:26;;;;;;;;;18.00;18.00;;;;;28.56;47.96;101101.34;5060245;28;46541;-71
2023/09/12 10:43:53;;;;;;;;;22.67;20.67;;;;;28.52;48.34;101100.91;5059510;28;45549;-71
2023/09/12 10:46:19;;;;;;;;;18.67;18.67;;;;;28.44;48.31;101095.56;5070356;27;45688;-71
2023/09/12 10:48:44;;;;;;;;;23.00;20.00;;;;;28.45;48.28;101091.81;5069086;27;45483;-71
2023/09/12 10:51:13;;;;;;;;;18.00;18.00;;;;;28.42;48.14;101103.09;5062169;28;47368;-69
2023/09/12 10:53:38;;;;;;;;;19.00;19.00;;;;;28.40;48.17;101111.47;5067177;27;45423;-69
2023/09/12 10:56:06;;;;;;;;;25.00;22.67;;;;;28.38;48.52;101113.56;5058563;28;45548;-69
2023/09/12 10:58:32;;;;;;;;;18.33;18.33;;;;;28.37;48.30;101114.59;5059505;28;45587;-70
2023/09/12 11:01:24;;;;;;;;;23.67;21.67;;;;;28.38;48.98;101112.72;5066559;28;45476;-71
2023/09/12 11:03:49;;;;;;;;;18.33;17.33;;;;;28.39;48.98;101106.22;5057987;28;45407;-70
2023/09/12 11:06:28;;;;;;;;;20.67;17.67;;;;;28.37;48.60;101098.22;5055549;28;45760;-71
2023/09/12 11:09:23;;;;;;;;;17.00;15.67;;;;;28.41;49.24;101104.16;5061499;28;45610;-70
2023/09/12 11:12:02;;;;;;;;;15.67;15.67;;;;;28.42;48.66;101108.56;5056236;28;45526;-68
2023/09/12 11:14:28;;;;;;;;;15.00;15.00;;;;;28.44;49.11;101114.66;5068176;28;45700;-69
2023/09/12 11:17:06;;;;;;;;;14.33;12.67;;;;;28.47;48.61;101110.69;5056387;28;45470;-68
2023/09/12 11:19:44;;;;;;;;;16.33;14.33;;;;;28.47;49.35;101108.81;5058001;28;46222;-70
2023/09/12 11:22:21;;;;;;;;;16.00;14.33;;;;;28.48;48.88;101112.41;5069512;28;45465;-69
2023/09/12 11:24:47;;;;;;;;;16.33;15.33;;;;;28.48;48.86;101113.25;5064248;28;45602;-70
2023/09/12 11:27:12;;;;;;;;;18.00;16.00;;;;;28.47;48.58;101114.28;5066352;28;45850;-70
2023/09/12 11:29:39;;;;;;;;;14.67;14.67;;;;;28.49;48.93;101114.09;5062027;28;46014;-70
2023/09/12 11:32:05;;;;;;;;;17.00;14.67;;;;;28.51;48.38;101112.00;5070470;28;45745;-70
2023/09/12 11:34:42;;;;;;;;;14.33;14.33;;;;;28.45;48.74;101100.00;5074469;28;45640;-70
2023/09/12 11:37:22;;;;;;;;;15.33;15.33;;;;;28.50;49.17;101105.72;5072764;28;45506;-70
2023/09/12 11:39:47;;;;;;;;;13.67;13.00;;;;;28.50;48.63;101111.19;5069734;28;45656;-71
2023/09/12 11:42:13;;;;;;;;;12.00;12.00;;;;;28.47;48.99;101099.78;5074803;28;62894;-70
2023/09/12 11:44:40;;;;;;;;;13.00;11.67;;;;;28.48;49.00;101101.50;5063805;28;45421;-70
2023/09/12 11:47:09;;;;;;;;;12.00;12.00;;;;;28.51;49.40;101106.56;5072172;28;45932;-70
2023/09/12 11:49:38;;;;;;;;;13.67;13.67;;;;;28.54;49.28;101117.09;5068358;28;45555;-70
2023/09/12 11:52:08;;;;;;;;;13.00;9.67;;;;;28.55;48.97;101110.59;5067877;28;46116;-69
2023/09/12 11:54:34;;;;;;;;;14.00;12.33;;;;;28.59;48.89;101113.75;5058353;28;45620;-69
2023/09/12 11:57:01;;;;;;;;;14.33;13.00;;;;;28.59;49.24;101114.63;5072502;28;45740;-68
2023/09/12 11:59:26;;;;;;;;;17.33;16.00;;;;;28.61;48.76;101108.97;5074850;28;45328;-70
2023/09/12 12:01:53;;;;;;;;;14.33;13.33;;;;;28.60;48.86;101110.84;5072067;28;45506;-69
2023/09/12 12:04:23;;;;;;;;;13.33;13.33;;;;;28.61;48.96;101108.97;5074861;28;45460;-70
2023/09/12 12:06:50;;;;;;;;;14.67;13.67;;;;;28.58;48.79;101103.88;5069350;28;45859;-69
2023/09/12 12:09:19;;;;;;;;;13.00;13.00;;;;;28.56;48.59;101106.81;5061339;28;45363;-69
2023/09/12 12:11:45;;;;;;;;;12.67;12.67;;;;;28.51;49.13;101110.13;5075411;28;46216;-69
2023/09/12 12:14:11;;;;;;;;;16.67;14.00;;;;;28.50;49.40;101111.19;5071848;28;45443;-71
2023/09/12 12:16:36;;;;;;;;;15.67;14.67;;;;;28.43;49.33;101101.19;5075246;28;45542;-71
2023/09/12 12:19:02;;;;;;;;;16.00;15.33;;;;;28.52;48.88;101106.38;5071211;28;45741;-71
2023/09/12 12:21:27;;;;;;;;;15.67;13.67;;;;;28.59;49.49;101109.16;5068245;28;45510;-72
2023/09/12 12:24:03;;;;;;;;;18.33;15.00;;;;;28.66;48.90;101109.22;5074427;28;45610;-70
2023/09/12 12:26:30;;;;;;;;;13.67;12.67;;;;;28.73;48.77;101114.75;5059312;28;45553;-70
2023/09/12 12:28:56;;;;;;;;;12.00;11.00;;;;;28.80;48.87;101121.97;5065855;28;45492;-70
2023/09/12 12:31:24;;;;;;;;;16.33;13.33;;;;;28.87;49.01;101122.03;5070093;28;48225;-71
2023/09/12 12:33:52;;;;;;;;;11.00;10.33;;;;;28.93;48.70;101118.56;5061274;28;45481;-73
2023/09/12 12:36:17;;;;;;;;;8.33;8.33;;;;;28.99;49.22;101121.53;5073336;28;45483;-73
2023/09/12 12:38:46;;;;;;;;;12.33;11.00;;;;;29.05;48.74;101127.06;5066781;27;45556;-70
2023/09/12 12:41:16;;;;;;;;;11.00;9.33;;;;;29.11;48.27;101119.13;5061294;28;45566;-71
2023/09/12 12:43:43;;;;;;;;;10.00;8.33;;;;;29.15;48.78;101121.28;5067511;28;45591;-72
2023/09/12 12:46:12;;;;;;;;;9.00;9.00;;;;;29.21;48.07;101132.47;5062542;28;45571;-72
2023/09/12 12:48:38;;;;;;;;;9.00;9.00;;;;;29.27;48.48;101131.66;5066523;27;45702;-69
2023/09/12 12:51:22;;;;;;;;;10.67;10.67;;;;;29.35;48.17;101127.94;5067134;28;45491;-69
2023/09/12 12:53:50;;;;;;;;;11.00;9.00;;;;;29.39;48.08;101124.56;5062351;27;45545;-69
2023/09/12 12:56:18;;;;;;;;;8.00;8.00;;;;;29.44;48.56;101124.00;5063055;28;45486;-70
2023/09/12 12:58:57;;;;;;;;;7.33;7.33;;;;;29.49;48.07;101120.66;5065071;28;47050;-69
2023/09/12 13:01:22;;;;;;;;;9.00;8.00;;;;;29.54;48.38;101118.19;5056552;28;46237;-70
2023/09/12 13:03:49;;;;;;;;;8.67;8.00;;;;;29.55;48.13;101118.00;5058947;28;45419;-70
2023/09/12 13:06:16;;;;;;;;;7.00;7.00;;;;;29.61;48.20;101115.50;5061126;28;45489;-70
2023/09/12 13:08:46;;;;;;;;;9.00;9.00;;;;;29.65;48.24;101117.66;5060895;28;45645;-72
2023/09/12 13:11:13;;;;;;;;;9.00;7.67;;;;;29.69;47.71;101118.06;5057899;28;45388;-69
2023/09/12 13:13:40;;;;;;;;;13.33;11.00;;;;;29.67;46.80;101118.28;5061995;28;45549;-70
2023/09/12 13:16:06;;;;;;;;;6.33;6.33;;;;;29.62;46.85;101119.94;5064510;28;45955;-70
2023/09/12 13:18:33;;;;;;;;;6.00;6.00;;;;;29.54;46.85;101113.56;5062346;28;46857;-70
2023/09/12 13:20:58;;;;;;;;;9.00;9.00;;;;;29.51;46.84;101115.88;5059393;28;46233;-70
2023/09/12 13:23:24;;;;;;;;;6.67;6.67;;;;;29.48;46.75;101110.75;5059019;28;46902;-69
2023/09/12 13:25:50;;;;;;;;;7.00;7.00;;;;;29.46;46.94;101116.44;5062404;28;45686;-69
2023/09/12 13:28:15;;;;;;;;;7.00;7.00;;;;;29.44;47.08;101113.91;5060127;27;45449;-69
2023/09/12 13:30:41;;;;;;;;;7.00;7.00;;;;;29.44;46.97;101116.66;5063358;28;46029;-68
2023/09/12 13:33:06;;;;;;;;;8.33;8.33;;;;;29.43;46.67;101116.84;5061696;28;45574;-68
2023/09/12 13:35:31;;;;;;;;;8.00;7.00;;;;;29.41;46.86;101105.25;5058850;28;45633;-69
2023/09/12 13:37:57;;;;;;;;;8.33;8.33;;;;;29.40;46.72;101112.63;5056173;28;45748;-68
2023/09/12 13:40:22;;;;;;;;;8.33;6.67;;;;;29.38;47.11;101105.66;5057689;27;45323;-70
2023/09/12 13:42:47;;;;;;;;;10.33;9.00;;;;;29.36;46.85;101108.59;5057900;28;45371;-70
2023/09/12 13:45:13;;;;;;;;;10.67;9.33;;;;;29.32;46.63;101101.84;5055363;28;54189;-69
2023/09/12 13:47:38;;;;;;;;;8.67;8.00;;;;;29.29;47.29;101108.53;5060941;28;45466;-70
2023/09/12 13:50:04;;;;;;;;;10.33;8.33;;;;;29.24;47.10;101105.56;5061385;28;45690;-70
2023/09/12 13:52:30;;;;;;;;;9.00;9.00;;;;;29.16;47.56;101094.78;5056800;28;45513;-69
2023/09/12 13:54:55;;;;;;;;;11.00;10.67;;;;;29.10;47.63;101099.13;5058987;28;45497;-70
2023/09/12 13:57:21;;;;;;;;;8.67;8.67;;;;;29.04;47.81;101100.78;5061694;28;45736;-69
2023/09/12 13:59:46;;;;;;;;;8.00;8.00;;;;;28.98;48.31;101096.09;5058313;28;46630;-69
2023/09/12 14:02:12;;;;;;;;;8.00;8.00;;;;;28.98;48.19;101101.56;5062055;28;45505;-71
2023/09/12 14:04:37;;;;;;;;;8.33;8.33;;;;;28.95;48.35;101095.66;5047982;28;45490;-70
2023/09/12 14:07:02;;;;;;;;;7.00;7.00;;;;;28.92;47.74;101096.88;5058387;28;45499;-69
2023/09/12 14:09:28;;;;;;;;;7.00;6.00;;;;;28.90;48.30;101094.34;5042052;28;46271;-69
2023/09/12 14:11:53;;;;;;;;;6.00;6.00;;;;;28.87;48.27;101102.94;5057191;28;45551;-71
2023/09/12 14:14:19;;;;;;;;;7.33;7.00;;;;;28.84;47.52;101097.84;5054759;28;45741;-72
2023/09/12 14:16:45;;;;;;;;;9.00;7.00;;;;;28.82;47.97;101101.81;5060647;28;45592;-71
2023/09/12 14:19:10;;;;;;;;;7.00;7.00;;;;;28.78;48.51;101098.63;5061572;28;46015;-70
2023/09/12 14:21:36;;;;;;;;;7.00;7.00;;;;;28.75;48.85;101101.75;5060427;28;45702;-70
2023/09/12 14:24:01;;;;;;;;;8.67;7.00;;;;;28.73;48.76;101099.22;5057174;28;45667;-71
2023/09/12 14:26:26;;;;;;;;;10.00;8.00;;;;;28.66;47.99;101090.13;5059110;28;47188;-70
2023/09/12 14:28:52;;;;;;;;;6.33;6.33;;;;;28.69;48.45;101094.34;5059630;28;46362;-69
2023/09/12 14:31:17;;;;;;;;;8.67;8.00;;;;;28.70;48.21;101096.88;5059749;28;45442;-71
2023/09/12 14:33:43;;;;;;;;;10.33;10.33;;;;;28.68;48.02;101096.22;5057513;28;45324;-71
2023/09/12 14:36:09;;;;;;;;;10.00;10.00;;;;;28.67;48.57;101095.38;5061553;28;45485;-70
2023/09/12 14:38:35;;;;;;;;;8.33;8.00;;;;;28.65;48.33;101093.91;5059484;28;46019;-70
2023/09/12 14:41:00;;;;;;;;;10.33;10.33;;;;;28.61;47.96;101095.31;5060958;28;47092;-70
2023/09/12 14:43:28;;;;;;;;;8.67;8.67;;;;;28.53;48.86;101086.19;5061769;28;46773;-70
2023/09/12 14:45:54;;;;;;;;;7.67;7.67;;;;;28.51;48.89;101098.34;5064230;28;45471;-69
2023/09/12 14:48:19;;;;;;;;;9.33;7.67;;;;;28.47;49.15;101097.06;5059426;28;45517;-68
2023/09/12 14:50:48;;;;;;;;;10.33;9.33;;;;;28.43;48.82;101095.75;5059222;28;49933;-68
2023/09/12 14:53:14;;;;;;;;;9.00;9.00;;;;;28.40;48.44;101096.97;5057075;28;45959;-68
2023/09/12 14:55:40;;;;;;;;;8.00;7.67;;;;;28.35;48.59;101100.28;5060861;28;45477;-70
2023/09/12 14:58:05;;;;;;;;;8.33;8.33;;;;;28.37;49.42;101106.41;5055985;28;46986;-70
2023/09/12 15:00:32;;;;;;;;;8.00;8.00;;;;;28.37;49.14;101095.47;5061770;28;45546;-70
2023/09/12 15:02:57;;;;;;;;;8.33;8.33;;;;;28.39;49.40;101098.88;5061871;28;45525;-70
2023/09/12 15:05:23;;;;;;;;;9.33;9.00;;;;;28.43;49.92;101098.47;5052995;28;46202;-70
2023/09/12 15:07:48;;;;;;;;;11.67;8.33;;;;;28.42;49.61;101094.91;5058685;27;48082;-69
2023/09/12 15:10:13;;;;;;;;;8.00;8.00;;;;;28.41;49.67;101085.88;5071540;27;49644;-70
2023/09/12 15:12:39;;;;;;;;;11.33;9.33;;;;;28.40;49.83;101096.97;5063150;27;55208;-69
2023/09/12 15:15:05;;;;;;;;;6.33;6.33;;;;;28.41;50.04;101090.50;5061952;27;45439;-69
2023/09/12 15:17:30;;;;;;;;;8.67;8.67;;;;;28.43;49.62;101099.34;5060780;27;46116;-70
2023/09/12 15:19:55;;;;;;;;;7.00;7.00;;;;;28.45;49.29;101094.53;5060233;27;55972;-69
2023/09/12 15:22:20;;;;;;;;;8.00;8.00;;;;;28.47;49.96;101100.63;5057738;27;48255;-69
2023/09/12 15:24:46;;;;;;;;;10.33;10.33;;;;;28.48;49.46;101096.03;5062829;27;46162;-71
2023/09/12 15:27:11;;;;;;;;;9.00;6.67;;;;;28.49;49.86;101095.81;5059410;27;60504;-70
2023/09/12 15:29:36;;;;;;;;;9.00;7.67;;;;;28.48;49.60;101094.13;5062091;28;45506;-71
2023/09/12 15:32:02;;;;;;;;;10.33;8.67;;;;;28.46;49.37;101100.81;5061908;28;45587;-71
2023/09/12 15:34:27;;;;;;;;;7.00;7.00;;;;;28.42;49.18;101097.66;5060419;28;45422;-71
2023/09/12 15:37:07;;;;;;;;;11.00;10.00;;;;;28.37;49.30;101097.38;5058050;28;45471;-74
2023/09/12 15:39:33;;;;;;;;;9.00;7.67;;;;;28.36;49.07;101092.97;5058908;28;45483;-74
2023/09/12 15:41:58;;;;;;;;;9.00;9.00;;;;;28.40;49.93;101097.84;5058111;28;45330;-74
2023/09/12 15:44:25;;;;;;;;;8.00;7.67;;;;;28.48;49.68;101093.31;5062268;28;45514;-75
2023/09/12 15:46:51;;;;;;;;;6.00;6.00;;;;;28.51;49.02;101088.28;5064156;28;46352;-76
2023/09/12 15:49:16;;;;;;;;;7.00;7.00;;;;;28.60;49.01;101099.94;5061993;28;45463;-77
2023/09/12 15:51:41;;;;;;;;;5.67;5.00;;;;;28.64;49.37;101090.31;5057093;28;45477;-76
2023/09/12 15:54:07;;;;;;;;;7.00;6.00;;;;;28.69;48.92;101092.44;5058740;28;45663;-76
2023/09/12 15:56:32;;;;;;;;;7.67;7.00;;;;;28.70;49.49;101098.75;5062187;28;50770;-76
2023/09/12 15:58:57;;;;;;;;;7.00;5.00;;;;;28.70;48.88;101094.16;5064774;28;45473;-76
2023/09/12 16:01:23;;;;;;;;;9.33;6.67;;;;;28.71;48.77;101093.09;5064016;28;45486;-76
2023/09/12 16:03:48;;;;;;;;;6.00;6.00;;;;;28.75;49.23;101088.09;5063738;27;45361;-76
2023/09/12 16:06:15;;;;;;;;;6.00;6.00;;;;;28.75;49.15;101080.75;5064267;28;46198;-76
2023/09/12 16:08:40;;;;;;;;;5.67;5.67;;;;;28.78;48.74;101079.50;5064224;28;45561;-76
2023/09/12 16:11:05;;;;;;;;;6.00;6.00;;;;;28.79;48.72;101083.94;5065876;28;45490;-76
2023/09/12 16:13:31;;;;;;;;;5.00;5.00;;;;;28.78;48.90;101080.34;5068369;28;45553;-76
2023/09/12 16:15:56;;;;;;;;;5.00;5.00;;;;;28.77;48.27;101081.38;5061470;28;45437;-76
2023/09/12 16:18:22;;;;;;;;;5.00;5.00;;;;;28.79;48.66;101079.31;5055852;27;46512;-75
2023/09/12 16:20:47;;;;;;;;;6.33;5.00;;;;;28.78;48.42;101080.34;5057137;28;45719;-74
2023/09/12 16:23:13;;;;;;;;;5.00;5.00;;;;;28.77;48.47;101075.94;5056965;27;45482;-74
2023/09/12 16:25:38;;;;;;;;;6.00;6.00;;;;;28.77;48.38;101080.56;5061045;28;45486;-78
2023/09/12 16:28:04;;;;;;;;;6.33;5.33;;;;;28.76;48.98;101082.44;5054733;28;45482;-76
2023/09/12 16:30:29;;;;;;;;;6.67;6.67;;;;;28.69;49.00;101078.78;5062746;28;45399;-77
2023/09/12 16:32:54;;;;;;;;;4.33;4.33;;;;;28.58;49.23;101082.03;5062499;28;45504;-75
2023/09/12 16:35:20;;;;;;;;;6.00;4.33;;;;;28.47;49.57;101080.66;5057254;28;45661;-75
2023/09/12 16:37:47;;;;;;;;;7.33;7.33;;;;;28.38;49.20;101082.69;5061358;28;45867;-75
2023/09/12 16:40:12;;;;;;;;;5.33;5.33;;;;;28.22;49.83;101075.53;5052429;28;45601;-76
2023/09/12 16:42:38;;;;;;;;;6.00;6.00;;;;;28.18;49.94;101082.41;5072683;28;45471;-78
2023/09/12 16:45:04;;;;;;;;;5.00;5.00;;;;;28.08;50.25;101080.00;5074411;28;45445;-76
2023/09/12 16:47:30;;;;;;;;;7.00;6.00;;;;;28.10;50.23;101084.25;5064231;27;45727;-75
2023/09/12 16:49:57;;;;;;;;;4.67;3.33;;;;;28.19;50.51;101081.41;5066430;27;45340;-73
2023/09/12 16:52:22;;;;;;;;;6.00;6.00;;;;;28.26;49.71;101076.88;5072553;27;45518;-73
2023/09/12 16:54:48;;;;;;;;;6.00;5.33;;;;;28.36;49.83;101085.59;5067291;27;45550;-74
2023/09/12 16:57:14;;;;;;;;;4.00;4.00;;;;;28.43;49.54;101071.19;5061849;28;45411;-73
2023/09/12 16:59:45;;;;;;;;;6.00;6.00;;;;;28.50;49.72;101081.16;5070241;28;45442;-73
2023/09/12 17:02:11;;;;;;;;;6.00;5.00;;;;;28.56;49.21;101079.50;5073770;28;45487;-73
2023/09/12 17:04:39;;;;;;;;;3.00;3.00;;;;;28.62;49.07;101091.53;5066889;28;45963;-75
2023/09/12 17:07:06;;;;;;;;;5.00;5.00;;;;;28.65;48.97;101094.72;5065145;28;45474;-74
2023/09/12 17:09:32;;;;;;;;;5.33;3.67;;;;;28.71;48.78;101103.16;5069879;28;45543;-74
2023/09/12 17:11:57;;;;;;;;;4.67;4.67;;;;;28.76;49.15;101096.09;5073526;28;45625;-75
2023/09/12 17:14:22;;;;;;;;;9.00;7.00;;;;;28.79;49.29;101094.84;5070429;28;63356;-73
2023/09/12 17:16:48;;;;;;;;;4.67;3.67;;;;;28.83;49.21;101101.63;5063232;28;46099;-72
2023/09/12 17:19:13;;;;;;;;;4.00;4.00;;;;;28.86;49.09;101094.91;5067446;28;51753;-73
2023/09/12 17:21:39;;;;;;;;;4.00;4.00;;;;;28.88;48.67;101096.44;5072676;28;45489;-72
2023/09/12 17:24:05;;;;;;;;;4.00;3.00;;;;;28.90;48.84;101094.34;5065064;28;46841;-73
2023/09/12 17:26:30;;;;;;;;;4.00;4.00;;;;;28.95;48.59;101104.69;5063805;28;45529;-73
2023/09/12 17:28:55;;;;;;;;;5.50;4.00;;;;;28.96;48.85;101100.91;5069479;27;45472;-73
2023/09/12 17:31:21;;;;;;;;;5.00;5.00;;;;;28.98;48.45;101100.72;5072690;28;45743;-74
2023/09/12 17:33:46;;;;;;;;;5.67;4.00;;;;;29.01;48.67;101109.38;5070669;28;45465;-72
2023/09/12 17:36:11;;;;;;;;;7.00;5.00;;;;;29.04;48.50;101110.84;5068208;28;45454;-73
2023/09/12 17:38:37;;;;;;;;;6.00;4.00;;;;;29.05;48.15;101110.66;5063391;28;45665;-72
2023/09/12 17:41:02;;;;;;;;;4.00;4.00;;;;;29.06;48.57;101106.06;5062737;28;45407;-73
2023/09/12 17:43:29;;;;;;;;;2.33;2.33;;;;;29.09;48.21;101104.81;5060562;28;45417;-73
2023/09/12 17:45:55;;;;;;;;;6.00;4.00;;;;;29.09;48.15;101104.81;5054920;28;45632;-73
2023/09/12 17:48:20;;;;;;;;;5.00;5.00;;;;;29.10;48.25;101107.31;5068745;28;45422;-74
2023/09/12 17:50:53;;;;;;;;;3.00;3.00;;;;;29.12;47.90;101104.41;5060576;28;50075;-73
2023/09/12 17:53:18;;;;;;;;;4.00;4.00;;;;;29.14;48.53;101105.06;5073434;28;45805;-73
2023/09/12 17:55:44;;;;;;;;;4.00;4.00;;;;;29.13;48.04;101092.44;5051060;28;46024;-73
2023/09/12 17:58:09;;;;;;;;;4.00;4.00;;;;;29.15;48.49;101095.81;5068764;27;45465;-73
2023/09/12 18:00:35;;;;;;;;;4.00;4.00;;;;;29.15;48.23;101095.81;5063088;28;45683;-74